createdAt,value
2022-10-11T00:03:26.994Z,22.99
2022-10-11T00:08:30.970Z,22.95
2022-10-11T00:13:33.939Z,22.93
2022-10-11T00:18:36.632Z,22.91
2022-10-11T00:23:41.235Z,22.90
2022-10-11T00:28:44.142Z,22.87
2022-10-11T00:33:47.767Z,22.84
2022-10-11T00:38:51.683Z,22.82
2022-10-11T00:44:10.396Z,22.80
2022-10-11T00:49:20.529Z,22.77
2022-10-11T00:54:29.547Z,22.73
2022-10-11T00:59:37.062Z,22.70
2022-10-11T01:04:40.876Z,22.67
2022-10-11T01:09:44.822Z,22.66
2022-10-11T01:15:06.128Z,22.61
2022-10-11T01:20:32.085Z,22.59
2022-10-11T01:25:52.829Z,22.57
2022-10-11T01:31:05.629Z,22.54
2022-10-11T01:36:17.283Z,22.52
2022-10-11T01:41:25.446Z,22.51
2022-10-11T01:46:31.445Z,22.48
2022-10-11T01:51:38.985Z,22.44
2022-10-11T01:57:17.572Z,22.42
2022-10-11T02:02:38.692Z,22.40
2022-10-11T02:07:46.606Z,22.38
2022-10-11T02:12:55.069Z,22.36
2022-10-11T02:18:04.342Z,22.35
2022-10-11T02:23:11.680Z,22.33
2022-10-11T02:28:18.697Z,22.30
2022-10-11T02:33:29.131Z,22.28
2022-10-11T02:38:38.377Z,22.27
2022-10-11T02:43:46.856Z,22.25
2022-10-11T02:48:52.195Z,22.23
2022-10-11T02:53:54.846Z,22.20
2022-10-11T02:58:57.418Z,22.20
2022-10-11T03:04:01.464Z,22.17
2022-10-11T03:09:07.031Z,22.15
2022-10-11T03:14:09.584Z,22.13
2022-10-11T03:19:16.978Z,22.13
2022-10-11T03:24:21.919Z,22.12
2022-10-11T03:29:24.739Z,22.10
2022-10-11T03:34:28.764Z,22.10
2022-10-11T03:39:31.348Z,22.09
2022-10-11T03:44:34.093Z,22.08
2022-10-11T03:49:42.711Z,22.10
2022-10-11T03:54:46.279Z,22.07
2022-10-11T03:59:49.075Z,22.06
2022-10-11T04:04:53.035Z,22.05
2022-10-11T04:09:55.656Z,22.03
2022-10-11T04:14:58.315Z,22.00
2022-10-11T04:20:02.445Z,22.00
2022-10-11T04:25:05.871Z,21.98
2022-10-11T04:30:10.008Z,21.97
2022-10-11T04:35:14.507Z,21.95
2022-10-11T04:40:17.425Z,21.92
2022-10-11T04:45:20.187Z,21.91
2022-10-11T04:50:24.227Z,21.90
2022-10-11T04:55:27.051Z,21.87
2022-10-11T05:00:29.750Z,21.86
2022-10-11T05:05:33.826Z,21.85
2022-10-11T05:10:36.421Z,21.84
2022-10-11T05:15:39.093Z,21.82
2022-10-11T05:20:43.071Z,21.80
2022-10-11T05:25:45.630Z,21.80
2022-10-11T05:30:48.233Z,21.79
2022-10-11T05:35:52.869Z,21.77
2022-10-11T05:40:55.880Z,21.75
2022-10-11T05:45:58.848Z,21.74
2022-10-11T05:51:05.058Z,21.74
2022-10-11T05:56:19.388Z,21.73
2022-10-11T06:01:24.200Z,21.72
2022-10-11T06:06:28.193Z,21.72
2022-10-11T06:11:30.891Z,21.71
2022-10-11T06:16:33.455Z,21.69
2022-10-11T06:21:37.502Z,21.69
2022-10-11T06:26:40.543Z,21.68
2022-10-11T06:31:43.158Z,21.68
2022-10-11T06:36:47.117Z,21.67
2022-10-11T06:41:49.720Z,21.68
2022-10-11T06:46:52.322Z,21.69
2022-10-11T06:51:56.286Z,21.70
2022-10-11T06:56:58.833Z,21.70
2022-10-11T07:02:01.438Z,21.69
2022-10-11T07:07:05.404Z,21.69
2022-10-11T07:12:08.865Z,20.77
2022-10-11T07:17:11.462Z,19.98
2022-10-11T07:22:15.474Z,19.58
2022-10-11T07:27:18.127Z,19.85
2022-10-11T07:32:20.720Z,20.37
2022-10-11T07:37:24.946Z,20.55
2022-10-11T07:42:27.514Z,20.65
2022-10-11T07:47:30.374Z,20.71
2022-10-11T07:52:36.277Z,20.76
2022-10-11T07:57:38.976Z,20.80
2022-10-11T08:02:41.571Z,20.86
2022-10-11T08:07:45.776Z,20.86
2022-10-11T08:12:48.420Z,20.91
2022-10-11T08:17:50.974Z,20.94
2022-10-11T08:22:54.896Z,20.96
2022-10-11T08:27:57.686Z,20.99
2022-10-11T08:33:07.546Z,21.02
2022-10-11T08:38:12.845Z,21.04
2022-10-11T08:43:28.177Z,20.84
2022-10-11T08:48:35.905Z,20.66
2022-10-11T08:53:47.560Z,20.55
2022-10-11T08:58:56.834Z,20.79
2022-10-11T09:04:00.124Z,20.89
2022-10-11T09:09:16.683Z,20.95
2022-10-11T09:14:46.709Z,21.00
2022-10-11T09:20:32.418Z,21.04
2022-10-11T09:25:46.852Z,21.08
2022-10-11T09:30:51.497Z,21.09
2022-10-11T09:35:54.138Z,21.13
2022-10-11T09:41:08.922Z,21.17
2022-10-11T09:46:20.555Z,21.19
2022-10-11T09:51:26.440Z,21.20
2022-10-11T09:56:33.061Z,21.25
2022-10-11T10:01:36.299Z,21.28
2022-10-11T10:06:40.556Z,21.29
2022-10-11T10:11:44.549Z,21.33
2022-10-11T10:16:47.355Z,21.41
2022-10-11T10:21:51.717Z,21.47
2022-10-11T10:27:16.859Z,21.53
2022-10-11T10:32:27.844Z,21.55
2022-10-11T10:37:35.918Z,21.60
2022-10-11T10:42:40.036Z,21.56
2022-10-11T10:47:59.345Z,21.61
2022-10-11T10:53:17.474Z,21.67
2022-10-11T10:58:37.635Z,21.68
2022-10-11T11:03:47.544Z,21.71
2022-10-11T11:09:04.346Z,21.74
2022-10-11T11:14:24.056Z,21.73
2022-10-11T11:19:41.797Z,21.72
2022-10-11T11:24:51.536Z,21.74
2022-10-11T11:30:03.222Z,21.74
2022-10-11T11:35:15.067Z,21.75
2022-10-11T11:40:19.952Z,21.76
2022-10-11T11:45:29.121Z,21.79
2022-10-11T11:50:39.955Z,21.79
2022-10-11T11:55:49.183Z,21.86
2022-10-11T12:01:02.330Z,21.90
2022-10-11T12:06:21.105Z,21.87
2022-10-11T12:11:31.780Z,21.98
2022-10-11T12:17:19.346Z,22.04
2022-10-11T12:22:40.698Z,22.12
2022-10-11T12:32:55.214Z,22.21
2022-10-11T12:38:06.353Z,22.26
2022-10-11T12:43:25.333Z,22.30
2022-10-11T12:48:46.610Z,22.34
2022-10-11T12:54:26.689Z,22.39
2022-10-11T12:59:33.102Z,22.49
2022-10-11T13:04:37.031Z,22.58
2022-10-11T13:09:46.596Z,22.67
2022-10-11T13:15:01.144Z,22.83
2022-10-11T13:20:16.757Z,22.99
2022-10-11T13:25:22.149Z,23.13
2022-10-11T13:30:28.245Z,23.26
2022-10-11T13:35:35.417Z,23.33
2022-10-11T13:40:38.731Z,23.35
2022-10-11T13:45:41.445Z,23.49
2022-10-11T13:50:52.051Z,23.50
2022-10-11T13:55:57.971Z,23.52
2022-10-11T14:01:03.745Z,23.43
2022-10-11T14:06:09.140Z,23.38
2022-10-11T14:11:14.279Z,23.34
2022-10-11T14:16:30.654Z,23.30
2022-10-11T14:21:36.760Z,23.29
2022-10-11T14:26:42.194Z,23.27
2022-10-11T14:31:46.051Z,23.25
2022-10-11T14:36:50.352Z,23.24
2022-10-11T14:41:53.538Z,23.24
2022-10-11T14:46:56.174Z,23.24
2022-10-11T14:52:00.476Z,23.26
2022-10-11T14:57:04.483Z,23.23
2022-10-11T15:02:11.984Z,23.20
2022-10-11T15:07:15.885Z,23.18
2022-10-11T15:12:18.405Z,23.15
2022-10-11T15:17:20.993Z,23.15
2022-10-11T15:22:25.046Z,23.14
2022-10-11T15:27:28.633Z,23.09
2022-10-11T15:32:31.232Z,23.11
2022-10-11T15:37:37.342Z,23.06
2022-10-11T15:42:41.476Z,23.08
2022-10-11T15:47:44.545Z,23.05
2022-10-11T15:52:48.557Z,23.03
2022-10-11T15:57:51.191Z,22.98
2022-10-11T16:02:54.792Z,22.92
2022-10-11T16:07:58.828Z,22.91
2022-10-11T16:13:02.024Z,22.87
2022-10-11T16:18:05.331Z,22.81
2022-10-11T16:23:09.887Z,22.80
2022-10-11T16:28:12.836Z,22.89
2022-10-11T16:33:15.523Z,22.96
2022-10-11T16:38:19.595Z,22.99
2022-10-11T16:43:22.207Z,23.05
2022-10-11T16:48:24.794Z,23.11
2022-10-11T16:53:28.862Z,23.25
2022-10-11T16:58:31.726Z,23.22
2022-10-11T17:03:34.302Z,23.25
2022-10-11T17:08:38.474Z,23.27
2022-10-11T17:13:41.288Z,23.29
2022-10-11T17:18:44.431Z,23.29
2022-10-11T17:23:49.315Z,23.30
2022-10-11T17:28:51.952Z,23.30
2022-10-11T17:33:54.853Z,23.29
2022-10-11T17:39:00.861Z,23.31
2022-10-11T17:44:03.558Z,23.31
2022-10-11T17:49:08.586Z,23.32
2022-10-11T17:54:13.375Z,23.32
2022-10-11T17:59:18.676Z,23.32
2022-10-11T18:04:22.302Z,23.33
2022-10-11T18:09:26.246Z,23.39
2022-10-11T18:14:28.831Z,23.38
2022-10-11T18:19:31.901Z,23.39
2022-10-11T18:24:36.008Z,23.39
2022-10-11T18:29:38.697Z,23.38
2022-10-11T18:34:41.433Z,23.41
2022-10-11T18:39:45.368Z,23.41
2022-10-11T18:44:48.348Z,23.43
2022-10-11T18:49:51.102Z,23.44
2022-10-11T18:54:55.028Z,23.45
2022-10-11T18:59:57.824Z,23.49
2022-10-11T19:05:00.490Z,23.49
2022-10-11T19:10:04.855Z,23.49
2022-10-11T19:15:08.174Z,23.52
2022-10-11T19:20:12.171Z,23.52
2022-10-11T19:25:16.250Z,23.54
2022-10-11T19:30:19.036Z,23.55
2022-10-11T19:35:21.688Z,23.54
2022-10-11T19:40:27.288Z,23.56
2022-10-11T19:45:36.015Z,23.59
2022-10-11T19:50:38.822Z,23.58
2022-10-11T19:55:46.358Z,23.60
2022-10-11T20:00:49.412Z,23.63
2022-10-11T20:05:51.957Z,23.61
2022-10-11T20:10:56.263Z,23.61
2022-10-11T20:15:59.836Z,23.61
2022-10-11T20:21:04.156Z,23.57
2022-10-11T20:26:09.666Z,23.53
2022-10-11T20:31:14.485Z,23.56
2022-10-11T20:36:18.682Z,23.55
2022-10-11T20:41:24.897Z,23.53
2022-10-11T20:46:29.802Z,23.54
2022-10-11T20:51:33.954Z,23.54
2022-10-11T20:56:38.551Z,23.55
2022-10-11T21:01:41.782Z,23.54
2022-10-11T21:06:44.447Z,23.53
2022-10-11T21:11:48.365Z,23.53
2022-10-11T21:16:51.124Z,23.49
2022-10-11T21:21:54.029Z,23.45
2022-10-11T21:27:00.639Z,23.45
2022-10-11T21:32:03.531Z,23.49
2022-10-11T21:37:06.110Z,23.46
2022-10-11T21:42:10.195Z,23.44
2022-10-11T21:47:12.777Z,23.40
2022-10-11T21:52:15.519Z,23.51
2022-10-11T21:57:19.429Z,23.45
2022-10-11T22:02:21.970Z,23.43
2022-10-11T22:07:24.554Z,23.42
2022-10-11T22:12:28.498Z,23.44
2022-10-11T22:17:31.111Z,23.43
2022-10-11T22:22:33.979Z,23.38
2022-10-11T22:27:38.117Z,23.33
2022-10-11T22:32:40.881Z,23.26
2022-10-11T22:37:43.857Z,23.19
2022-10-11T22:42:47.894Z,23.16
2022-10-11T22:47:50.502Z,23.13
2022-10-11T22:52:53.165Z,23.08
2022-10-11T22:57:57.128Z,22.97
2022-10-11T23:02:59.806Z,22.90
2022-10-11T23:08:04.736Z,22.85
2022-10-11T23:13:08.660Z,22.83
2022-10-11T23:18:11.344Z,22.79
2022-10-11T23:23:14.000Z,22.69
2022-10-11T23:28:17.944Z,22.61
2022-10-11T23:33:20.530Z,22.54
2022-10-11T23:38:23.173Z,22.44
2022-10-11T23:43:27.096Z,22.34
2022-10-11T23:48:29.676Z,22.26
2022-10-11T23:53:32.292Z,22.21
2022-10-11T23:58:36.375Z,22.17
